sensor_id;sensor_type;location;lat;lon;timestamp;P1;durP1;ratioP1;P2;durP2;ratioP2
6422;SDS011;3244;42.708;23.288;2023-12-20T00:01:55;91.30;;;46.92;;
6422;SDS011;3244;42.708;23.288;2023-12-20T00:04:22;93.05;;;46.10;;
6422;SDS011;3244;42.708;23.288;2023-12-20T00:06:49;98.20;;;46.03;;
6422;SDS011;3244;42.708;23.288;2023-12-20T00:09:15;82.20;;;43.35;;
6422;SDS011;3244;42.708;23.288;2023-12-20T00:11:42;75.57;;;42.50;;
6422;SDS011;3244;42.708;23.288;2023-12-20T00:14:10;87.22;;;43.95;;
6422;SDS011;3244;42.708;23.288;2023-12-20T00:16:37;80.80;;;42.35;;
6422;SDS011;3244;42.708;23.288;2023-12-20T00:19:04;90.45;;;42.33;;
6422;SDS011;3244;42.708;23.288;2023-12-20T00:21:31;85.53;;;44.08;;
6422;SDS011;3244;42.708;23.288;2023-12-20T00:23:57;85.80;;;42.90;;
6422;SDS011;3244;42.708;23.288;2023-12-20T00:26:24;82.57;;;39.78;;
6422;SDS011;3244;42.708;23.288;2023-12-20T00:28:50;80.90;;;39.50;;
6422;SDS011;3244;42.708;23.288;2023-12-20T00:31:19;75.68;;;41.40;;
6422;SDS011;3244;42.708;23.288;2023-12-20T00:33:45;76.30;;;37.40;;
6422;SDS011;3244;42.708;23.288;2023-12-20T00:36:12;86.30;;;41.40;;
6422;SDS011;3244;42.708;23.288;2023-12-20T00:38:39;77.13;;;39.67;;
6422;SDS011;3244;42.708;23.288;2023-12-20T00:41:05;83.00;;;40.88;;
6422;SDS011;3244;42.708;23.288;2023-12-20T00:43:32;76.32;;;40.38;;
6422;SDS011;3244;42.708;23.288;2023-12-20T00:45:58;78.88;;;39.50;;
6422;SDS011;3244;42.708;23.288;2023-12-20T00:48:27;87.03;;;43.25;;
6422;SDS011;3244;42.708;23.288;2023-12-20T00:50:55;79.60;;;40.47;;
6422;SDS011;3244;42.708;23.288;2023-12-20T00:53:22;84.90;;;40.72;;
6422;SDS011;3244;42.708;23.288;2023-12-20T00:55:48;80.05;;;40.92;;
6422;SDS011;3244;42.708;23.288;2023-12-20T00:58:15;75.53;;;37.47;;
6422;SDS011;3244;42.708;23.288;2023-12-20T01:00:42;76.20;;;37.88;;
6422;SDS011;3244;42.708;23.288;2023-12-20T01:03:09;71.28;;;36.72;;
6422;SDS011;3244;42.708;23.288;2023-12-20T01:05:37;75.93;;;36.45;;
6422;SDS011;3244;42.708;23.288;2023-12-20T01:08:04;78.70;;;38.53;;
6422;SDS011;3244;42.708;23.288;2023-12-20T01:10:31;76.38;;;38.75;;
6422;SDS011;3244;42.708;23.288;2023-12-20T01:12:57;93.63;;;38.17;;
6422;SDS011;3244;42.708;23.288;2023-12-20T01:15:24;74.93;;;38.42;;
6422;SDS011;3244;42.708;23.288;2023-12-20T01:17:51;67.03;;;36.03;;
6422;SDS011;3244;42.708;23.288;2023-12-20T01:20:17;66.70;;;36.17;;
6422;SDS011;3244;42.708;23.288;2023-12-20T01:22:46;81.00;;;38.28;;
6422;SDS011;3244;42.708;23.288;2023-12-20T01:25:13;68.55;;;37.38;;
6422;SDS011;3244;42.708;23.288;2023-12-20T01:27:39;77.43;;;37.75;;
6422;SDS011;3244;42.708;23.288;2023-12-20T01:30:07;66.35;;;35.17;;
6422;SDS011;3244;42.708;23.288;2023-12-20T01:32:34;70.38;;;35.65;;
6422;SDS011;3244;42.708;23.288;2023-12-20T01:35:00;75.83;;;38.47;;
6422;SDS011;3244;42.708;23.288;2023-12-20T01:37:27;76.35;;;38.03;;
6422;SDS011;3244;42.708;23.288;2023-12-20T01:39:55;69.10;;;36.83;;
6422;SDS011;3244;42.708;23.288;2023-12-20T01:42:22;73.47;;;38.92;;
6422;SDS011;3244;42.708;23.288;2023-12-20T01:44:49;95.72;;;42.45;;
6422;SDS011;3244;42.708;23.288;2023-12-20T01:47:15;78.47;;;36.65;;
6422;SDS011;3244;42.708;23.288;2023-12-20T01:49:42;65.47;;;35.10;;
6422;SDS011;3244;42.708;23.288;2023-12-20T01:52:10;69.55;;;35.65;;
6422;SDS011;3244;42.708;23.288;2023-12-20T01:54:37;73.70;;;36.17;;
6422;SDS011;3244;42.708;23.288;2023-12-20T01:57:06;69.68;;;37.10;;
6422;SDS011;3244;42.708;23.288;2023-12-20T01:59:34;74.85;;;35.90;;
6422;SDS011;3244;42.708;23.288;2023-12-20T02:02:01;67.25;;;34.08;;
6422;SDS011;3244;42.708;23.288;2023-12-20T02:04:29;63.20;;;33.28;;
6422;SDS011;3244;42.708;23.288;2023-12-20T02:06:56;71.85;;;33.47;;
6422;SDS011;3244;42.708;23.288;2023-12-20T02:09:25;63.20;;;33.50;;
6422;SDS011;3244;42.708;23.288;2023-12-20T02:11:51;80.22;;;35.20;;
6422;SDS011;3244;42.708;23.288;2023-12-20T02:14:20;68.32;;;35.67;;
6422;SDS011;3244;42.708;23.288;2023-12-20T02:16:47;101.07;;;43.22;;
6422;SDS011;3244;42.708;23.288;2023-12-20T02:19:14;85.20;;;42.20;;
6422;SDS011;3244;42.708;23.288;2023-12-20T02:21:44;118.82;;;38.65;;
6422;SDS011;3244;42.708;23.288;2023-12-20T02:24:11;100.75;;;41.97;;
6422;SDS011;3244;42.708;23.288;2023-12-20T02:26:38;97.40;;;40.30;;
6422;SDS011;3244;42.708;23.288;2023-12-20T02:29:04;95.95;;;39.35;;
6422;SDS011;3244;42.708;23.288;2023-12-20T02:31:31;89.88;;;40.10;;
6422;SDS011;3244;42.708;23.288;2023-12-20T02:33:58;92.78;;;38.60;;
6422;SDS011;3244;42.708;23.288;2023-12-20T02:36:25;96.85;;;37.38;;
6422;SDS011;3244;42.708;23.288;2023-12-20T02:38:53;91.03;;;38.05;;
6422;SDS011;3244;42.708;23.288;2023-12-20T02:41:19;91.28;;;37.72;;
6422;SDS011;3244;42.708;23.288;2023-12-20T02:43:46;68.50;;;33.47;;
6422;SDS011;3244;42.708;23.288;2023-12-20T02:46:13;83.38;;;36.25;;
6422;SDS011;3244;42.708;23.288;2023-12-20T02:48:42;71.38;;;32.20;;
6422;SDS011;3244;42.708;23.288;2023-12-20T02:51:08;78.70;;;30.58;;
6422;SDS011;3244;42.708;23.288;2023-12-20T02:53:35;60.00;;;30.48;;
6422;SDS011;3244;42.708;23.288;2023-12-20T02:56:03;64.50;;;27.77;;
6422;SDS011;3244;42.708;23.288;2023-12-20T02:58:31;55.97;;;26.30;;
6422;SDS011;3244;42.708;23.288;2023-12-20T03:00:58;76.07;;;29.67;;
6422;SDS011;3244;42.708;23.288;2023-12-20T03:03:24;78.22;;;27.77;;
6422;SDS011;3244;42.708;23.288;2023-12-20T03:05:52;60.85;;;28.02;;
6422;SDS011;3244;42.708;23.288;2023-12-20T03:08:19;55.40;;;26.95;;
6422;SDS011;3244;42.708;23.288;2023-12-20T03:10:45;58.97;;;26.05;;
6422;SDS011;3244;42.708;23.288;2023-12-20T03:13:13;61.88;;;24.85;;
6422;SDS011;3244;42.708;23.288;2023-12-20T03:15:41;105.20;;;27.25;;
6422;SDS011;3244;42.708;23.288;2023-12-20T03:18:08;78.45;;;24.85;;
6422;SDS011;3244;42.708;23.288;2023-12-20T03:20:35;58.25;;;27.48;;
6422;SDS011;3244;42.708;23.288;2023-12-20T03:23:01;105.72;;;31.23;;
6422;SDS011;3244;42.708;23.288;2023-12-20T03:25:28;76.55;;;29.80;;
6422;SDS011;3244;42.708;23.288;2023-12-20T03:27:55;70.93;;;27.70;;
6422;SDS011;3244;42.708;23.288;2023-12-20T03:30:23;60.38;;;28.92;;
6422;SDS011;3244;42.708;23.288;2023-12-20T03:32:49;83.50;;;28.52;;
6422;SDS011;3244;42.708;23.288;2023-12-20T03:35:16;61.53;;;26.73;;
6422;SDS011;3244;42.708;23.288;2023-12-20T03:37:42;61.75;;;26.67;;
6422;SDS011;3244;42.708;23.288;2023-12-20T03:40:09;57.03;;;26.30;;
6422;SDS011;3244;42.708;23.288;2023-12-20T03:42:36;58.33;;;25.75;;
6422;SDS011;3244;42.708;23.288;2023-12-20T03:45:03;69.70;;;26.85;;
6422;SDS011;3244;42.708;23.288;2023-12-20T03:47:32;84.63;;;32.20;;
6422;SDS011;3244;42.708;23.288;2023-12-20T03:49:58;62.03;;;27.95;;
6422;SDS011;3244;42.708;23.288;2023-12-20T03:52:25;53.35;;;25.85;;
6422;SDS011;3244;42.708;23.288;2023-12-20T03:54:51;45.17;;;25.15;;
6422;SDS011;3244;42.708;23.288;2023-12-20T03:57:18;60.60;;;27.65;;
6422;SDS011;3244;42.708;23.288;2023-12-20T03:59:45;59.58;;;28.88;;
6422;SDS011;3244;42.708;23.288;2023-12-20T04:02:12;69.20;;;28.10;;
6422;SDS011;3244;42.708;23.288;2023-12-20T04:04:40;82.95;;;30.95;;
6422;SDS011;3244;42.708;23.288;2023-12-20T04:07:07;67.53;;;31.13;;
6422;SDS011;3244;42.708;23.288;2023-12-20T04:09:33;61.72;;;30.95;;
6422;SDS011;3244;42.708;23.288;2023-12-20T04:12:00;71.88;;;30.00;;
6422;SDS011;3244;42.708;23.288;2023-12-20T04:14:26;57.60;;;27.63;;
6422;SDS011;3244;42.708;23.288;2023-12-20T04:16:53;61.90;;;29.77;;
6422;SDS011;3244;42.708;23.288;2023-12-20T04:19:20;66.72;;;29.10;;
6422;SDS011;3244;42.708;23.288;2023-12-20T04:21:48;68.95;;;31.27;;
6422;SDS011;3244;42.708;23.288;2023-12-20T04:24:15;53.38;;;28.52;;
6422;SDS011;3244;42.708;23.288;2023-12-20T04:27:00;66.78;;;29.75;;
6422;SDS011;3244;42.708;23.288;2023-12-20T04:29:27;66.25;;;29.90;;
6422;SDS011;3244;42.708;23.288;2023-12-20T04:31:53;66.25;;;29.33;;
6422;SDS011;3244;42.708;23.288;2023-12-20T04:34:20;68.88;;;31.33;;
6422;SDS011;3244;42.708;23.288;2023-12-20T04:36:48;70.68;;;32.22;;
6422;SDS011;3244;42.708;23.288;2023-12-20T04:39:15;73.60;;;29.40;;
6422;SDS011;3244;42.708;23.288;2023-12-20T04:41:42;84.80;;;32.95;;
6422;SDS011;3244;42.708;23.288;2023-12-20T04:44:08;75.18;;;31.38;;
6422;SDS011;3244;42.708;23.288;2023-12-20T04:46:35;89.97;;;35.70;;
6422;SDS011;3244;42.708;23.288;2023-12-20T04:49:02;86.20;;;35.15;;
6422;SDS011;3244;42.708;23.288;2023-12-20T04:51:29;81.85;;;33.47;;
6422;SDS011;3244;42.708;23.288;2023-12-20T04:53:57;77.93;;;33.58;;
6422;SDS011;3244;42.708;23.288;2023-12-20T04:56:23;101.60;;;37.35;;
6422;SDS011;3244;42.708;23.288;2023-12-20T04:58:50;106.63;;;35.13;;
6422;SDS011;3244;42.708;23.288;2023-12-20T05:01:17;132.55;;;38.97;;
6422;SDS011;3244;42.708;23.288;2023-12-20T05:03:43;101.10;;;37.28;;
6422;SDS011;3244;42.708;23.288;2023-12-20T05:06:10;111.78;;;39.25;;
6422;SDS011;3244;42.708;23.288;2023-12-20T05:08:39;92.97;;;36.03;;
6422;SDS011;3244;42.708;23.288;2023-12-20T05:11:07;119.90;;;40.83;;
6422;SDS011;3244;42.708;23.288;2023-12-20T05:13:34;107.63;;;36.95;;
6422;SDS011;3244;42.708;23.288;2023-12-20T05:16:01;107.23;;;35.87;;
6422;SDS011;3244;42.708;23.288;2023-12-20T05:18:28;103.47;;;35.97;;
6422;SDS011;3244;42.708;23.288;2023-12-20T05:20:54;86.07;;;35.83;;
6422;SDS011;3244;42.708;23.288;2023-12-20T05:23:21;115.68;;;39.00;;
6422;SDS011;3244;42.708;23.288;2023-12-20T05:25:47;92.38;;;36.63;;
6422;SDS011;3244;42.708;23.288;2023-12-20T05:28:15;109.25;;;38.58;;
6422;SDS011;3244;42.708;23.288;2023-12-20T05:30:42;98.80;;;36.63;;
6422;SDS011;3244;42.708;23.288;2023-12-20T05:33:09;103.45;;;38.53;;
6422;SDS011;3244;42.708;23.288;2023-12-20T05:35:35;136.10;;;39.83;;
6422;SDS011;3244;42.708;23.288;2023-12-20T05:38:02;98.88;;;40.28;;
6422;SDS011;3244;42.708;23.288;2023-12-20T05:40:29;94.55;;;38.28;;
6422;SDS011;3244;42.708;23.288;2023-12-20T05:42:55;83.88;;;37.38;;
6422;SDS011;3244;42.708;23.288;2023-12-20T05:45:23;130.25;;;49.33;;
6422;SDS011;3244;42.708;23.288;2023-12-20T05:47:50;142.10;;;54.53;;
6422;SDS011;3244;42.708;23.288;2023-12-20T05:50:16;104.72;;;42.20;;
6422;SDS011;3244;42.708;23.288;2023-12-20T05:52:43;129.63;;;51.15;;
6422;SDS011;3244;42.708;23.288;2023-12-20T05:55:10;169.00;;;59.00;;
6422;SDS011;3244;42.708;23.288;2023-12-20T05:57:37;125.45;;;50.85;;
6422;SDS011;3244;42.708;23.288;2023-12-20T06:00:03;109.40;;;44.15;;
6422;SDS011;3244;42.708;23.288;2023-12-20T06:02:32;105.28;;;42.38;;
6422;SDS011;3244;42.708;23.288;2023-12-20T06:04:59;123.72;;;44.92;;
6422;SDS011;3244;42.708;23.288;2023-12-20T06:07:26;109.20;;;43.72;;
6422;SDS011;3244;42.708;23.288;2023-12-20T06:09:53;105.15;;;40.55;;
6422;SDS011;3244;42.708;23.288;2023-12-20T06:12:20;141.80;;;41.55;;
6422;SDS011;3244;42.708;23.288;2023-12-20T06:14:46;111.22;;;40.13;;
6422;SDS011;3244;42.708;23.288;2023-12-20T06:17:13;90.95;;;38.13;;
6422;SDS011;3244;42.708;23.288;2023-12-20T06:19:41;111.85;;;40.63;;
6422;SDS011;3244;42.708;23.288;2023-12-20T06:22:10;110.30;;;45.85;;
6422;SDS011;3244;42.708;23.288;2023-12-20T06:24:37;108.95;;;41.85;;
6422;SDS011;3244;42.708;23.288;2023-12-20T06:27:03;99.72;;;39.20;;
6422;SDS011;3244;42.708;23.288;2023-12-20T06:29:31;86.78;;;35.97;;
6422;SDS011;3244;42.708;23.288;2023-12-20T06:31:58;86.43;;;37.42;;
6422;SDS011;3244;42.708;23.288;2023-12-20T06:34:24;87.28;;;35.35;;
6422;SDS011;3244;42.708;23.288;2023-12-20T06:36:52;89.57;;;34.92;;
6422;SDS011;3244;42.708;23.288;2023-12-20T06:39:19;87.20;;;33.83;;
6422;SDS011;3244;42.708;23.288;2023-12-20T06:41:46;92.53;;;35.72;;
6422;SDS011;3244;42.708;23.288;2023-12-20T06:44:12;86.00;;;35.08;;
6422;SDS011;3244;42.708;23.288;2023-12-20T06:46:39;78.28;;;33.08;;
6422;SDS011;3244;42.708;23.288;2023-12-20T06:49:06;92.43;;;34.88;;
6422;SDS011;3244;42.708;23.288;2023-12-20T06:51:32;84.53;;;34.83;;
6422;SDS011;3244;42.708;23.288;2023-12-20T06:54:00;100.50;;;34.47;;
6422;SDS011;3244;42.708;23.288;2023-12-20T06:56:27;74.68;;;33.10;;
6422;SDS011;3244;42.708;23.288;2023-12-20T06:58:54;106.82;;;32.45;;
6422;SDS011;3244;42.708;23.288;2023-12-20T07:01:20;79.50;;;33.08;;
6422;SDS011;3244;42.708;23.288;2023-12-20T07:03:47;94.00;;;33.65;;
6422;SDS011;3244;42.708;23.288;2023-12-20T07:06:14;92.60;;;35.15;;
6422;SDS011;3244;42.708;23.288;2023-12-20T07:08:42;90.25;;;33.30;;
6422;SDS011;3244;42.708;23.288;2023-12-20T07:11:10;86.30;;;31.25;;
6422;SDS011;3244;42.708;23.288;2023-12-20T07:13:36;75.70;;;32.45;;
6422;SDS011;3244;42.708;23.288;2023-12-20T07:16:03;75.28;;;30.05;;
6422;SDS011;3244;42.708;23.288;2023-12-20T07:18:30;73.90;;;32.25;;
6422;SDS011;3244;42.708;23.288;2023-12-20T07:20:57;78.72;;;33.25;;
6422;SDS011;3244;42.708;23.288;2023-12-20T07:23:23;84.60;;;33.42;;
6422;SDS011;3244;42.708;23.288;2023-12-20T07:25:51;77.03;;;34.08;;
6422;SDS011;3244;42.708;23.288;2023-12-20T07:28:19;80.07;;;32.50;;
6422;SDS011;3244;42.708;23.288;2023-12-20T07:30:46;79.45;;;33.00;;
6422;SDS011;3244;42.708;23.288;2023-12-20T07:33:12;80.00;;;31.05;;
6422;SDS011;3244;42.708;23.288;2023-12-20T07:35:39;86.05;;;33.13;;
6422;SDS011;3244;42.708;23.288;2023-12-20T07:38:06;77.40;;;33.85;;
6422;SDS011;3244;42.708;23.288;2023-12-20T07:40:32;88.07;;;35.70;;
6422;SDS011;3244;42.708;23.288;2023-12-20T07:42:59;86.30;;;37.67;;
6422;SDS011;3244;42.708;23.288;2023-12-20T07:45:27;95.13;;;38.10;;
6422;SDS011;3244;42.708;23.288;2023-12-20T07:47:53;66.25;;;31.67;;
6422;SDS011;3244;42.708;23.288;2023-12-20T07:50:20;80.30;;;31.02;;
6422;SDS011;3244;42.708;23.288;2023-12-20T07:52:47;78.50;;;33.88;;
6422;SDS011;3244;42.708;23.288;2023-12-20T07:55:13;95.78;;;36.22;;
6422;SDS011;3244;42.708;23.288;2023-12-20T07:57:40;94.60;;;37.60;;
6422;SDS011;3244;42.708;23.288;2023-12-20T08:00:07;94.85;;;37.47;;
6422;SDS011;3244;42.708;23.288;2023-12-20T08:02:36;116.15;;;42.17;;
6422;SDS011;3244;42.708;23.288;2023-12-20T08:05:03;108.97;;;40.63;;
6422;SDS011;3244;42.708;23.288;2023-12-20T08:07:30;116.53;;;43.55;;
6422;SDS011;3244;42.708;23.288;2023-12-20T08:09:56;117.35;;;44.20;;
6422;SDS011;3244;42.708;23.288;2023-12-20T08:12:23;123.40;;;43.35;;
6422;SDS011;3244;42.708;23.288;2023-12-20T08:14:52;112.07;;;44.58;;
6422;SDS011;3244;42.708;23.288;2023-12-20T08:17:19;128.93;;;47.53;;
6422;SDS011;3244;42.708;23.288;2023-12-20T08:19:47;113.93;;;44.20;;
6422;SDS011;3244;42.708;23.288;2023-12-20T08:22:14;120.45;;;42.83;;
6422;SDS011;3244;42.708;23.288;2023-12-20T08:24:40;113.20;;;45.17;;
6422;SDS011;3244;42.708;23.288;2023-12-20T08:27:07;111.43;;;41.22;;
6422;SDS011;3244;42.708;23.288;2023-12-20T08:29:34;104.88;;;42.40;;
6422;SDS011;3244;42.708;23.288;2023-12-20T08:32:01;123.03;;;45.83;;
6422;SDS011;3244;42.708;23.288;2023-12-20T08:34:28;101.55;;;41.78;;
6422;SDS011;3244;42.708;23.288;2023-12-20T08:36:56;112.47;;;43.13;;
6422;SDS011;3244;42.708;23.288;2023-12-20T08:39:22;102.50;;;40.70;;
6422;SDS011;3244;42.708;23.288;2023-12-20T08:41:49;113.22;;;44.20;;
6422;SDS011;3244;42.708;23.288;2023-12-20T08:44:17;136.13;;;51.05;;
6422;SDS011;3244;42.708;23.288;2023-12-20T08:46:44;134.07;;;50.70;;
6422;SDS011;3244;42.708;23.288;2023-12-20T08:49:10;143.75;;;52.17;;
6422;SDS011;3244;42.708;23.288;2023-12-20T08:51:37;138.35;;;49.30;;
6422;SDS011;3244;42.708;23.288;2023-12-20T08:54:07;143.57;;;51.60;;
6422;SDS011;3244;42.708;23.288;2023-12-20T08:56:33;121.13;;;52.75;;
6422;SDS011;3244;42.708;23.288;2023-12-20T08:59:00;140.20;;;54.08;;
6422;SDS011;3244;42.708;23.288;2023-12-20T09:01:26;142.88;;;54.65;;
6422;SDS011;3244;42.708;23.288;2023-12-20T09:03:53;132.18;;;52.67;;
6422;SDS011;3244;42.708;23.288;2023-12-20T09:06:19;142.07;;;51.45;;
6422;SDS011;3244;42.708;23.288;2023-12-20T09:08:46;147.23;;;54.22;;
6422;SDS011;3244;42.708;23.288;2023-12-20T09:11:14;130.90;;;55.33;;
6422;SDS011;3244;42.708;23.288;2023-12-20T09:13:42;152.40;;;58.30;;
6422;SDS011;3244;42.708;23.288;2023-12-20T09:16:09;155.27;;;57.75;;
6422;SDS011;3244;42.708;23.288;2023-12-20T09:18:36;155.65;;;59.58;;
6422;SDS011;3244;42.708;23.288;2023-12-20T09:21:03;145.85;;;58.50;;
6422;SDS011;3244;42.708;23.288;2023-12-20T09:23:29;150.95;;;57.42;;
6422;SDS011;3244;42.708;23.288;2023-12-20T09:25:56;132.43;;;54.33;;
6422;SDS011;3244;42.708;23.288;2023-12-20T09:28:24;133.63;;;52.20;;
6422;SDS011;3244;42.708;23.288;2023-12-20T09:30:50;164.40;;;59.65;;
6422;SDS011;3244;42.708;23.288;2023-12-20T09:33:17;152.35;;;58.45;;
6422;SDS011;3244;42.708;23.288;2023-12-20T09:35:43;149.43;;;62.13;;
6422;SDS011;3244;42.708;23.288;2023-12-20T09:38:10;182.38;;;67.20;;
6422;SDS011;3244;42.708;23.288;2023-12-20T09:40:38;155.38;;;60.80;;
6422;SDS011;3244;42.708;23.288;2023-12-20T09:43:08;149.27;;;57.63;;
6422;SDS011;3244;42.708;23.288;2023-12-20T09:45:38;144.43;;;58.83;;
6422;SDS011;3244;42.708;23.288;2023-12-20T09:48:06;150.75;;;58.67;;
6422;SDS011;3244;42.708;23.288;2023-12-20T09:50:33;145.07;;;58.35;;
6422;SDS011;3244;42.708;23.288;2023-12-20T09:53:00;150.52;;;56.78;;
6422;SDS011;3244;42.708;23.288;2023-12-20T09:55:29;146.15;;;56.67;;
6422;SDS011;3244;42.708;23.288;2023-12-20T09:57:56;141.75;;;56.67;;
6422;SDS011;3244;42.708;23.288;2023-12-20T10:00:23;159.30;;;60.55;;
6422;SDS011;3244;42.708;23.288;2023-12-20T10:02:54;149.20;;;57.70;;
6422;SDS011;3244;42.708;23.288;2023-12-20T10:05:26;151.55;;;58.03;;
6422;SDS011;3244;42.708;23.288;2023-12-20T10:07:52;146.50;;;59.50;;
6422;SDS011;3244;42.708;23.288;2023-12-20T10:10:19;159.15;;;61.13;;
6422;SDS011;3244;42.708;23.288;2023-12-20T10:13:00;155.45;;;63.85;;
6422;SDS011;3244;42.708;23.288;2023-12-20T10:15:27;154.23;;;60.65;;
6422;SDS011;3244;42.708;23.288;2023-12-20T10:17:54;159.98;;;63.17;;
6422;SDS011;3244;42.708;23.288;2023-12-20T10:20:21;181.25;;;66.82;;
6422;SDS011;3244;42.708;23.288;2023-12-20T10:22:47;176.40;;;69.10;;
6422;SDS011;3244;42.708;23.288;2023-12-20T10:25:14;169.38;;;68.57;;
6422;SDS011;3244;42.708;23.288;2023-12-20T10:27:40;164.95;;;65.63;;
6422;SDS011;3244;42.708;23.288;2023-12-20T10:30:07;164.00;;;65.63;;
6422;SDS011;3244;42.708;23.288;2023-12-20T10:32:34;164.75;;;65.68;;
6422;SDS011;3244;42.708;23.288;2023-12-20T10:35:03;156.95;;;64.05;;
6422;SDS011;3244;42.708;23.288;2023-12-20T10:37:29;163.65;;;63.72;;
6422;SDS011;3244;42.708;23.288;2023-12-20T10:39:56;146.07;;;60.60;;
6422;SDS011;3244;42.708;23.288;2023-12-20T10:42:26;167.75;;;70.40;;
6422;SDS011;3244;42.708;23.288;2023-12-20T10:44:52;145.77;;;65.97;;
6422;SDS011;3244;42.708;23.288;2023-12-20T10:47:19;163.15;;;65.50;;
6422;SDS011;3244;42.708;23.288;2023-12-20T10:49:46;160.55;;;69.10;;
6422;SDS011;3244;42.708;23.288;2023-12-20T10:52:14;172.27;;;67.38;;
6422;SDS011;3244;42.708;23.288;2023-12-20T10:54:44;164.75;;;70.70;;
6422;SDS011;3244;42.708;23.288;2023-12-20T10:57:11;162.15;;;68.68;;
6422;SDS011;3244;42.708;23.288;2023-12-20T10:59:37;152.20;;;65.55;;
6422;SDS011;3244;42.708;23.288;2023-12-20T11:02:05;164.30;;;67.47;;
6422;SDS011;3244;42.708;23.288;2023-12-20T11:04:36;154.18;;;65.72;;
6422;SDS011;3244;42.708;23.288;2023-12-20T11:07:05;163.30;;;69.13;;
6422;SDS011;3244;42.708;23.288;2023-12-20T11:09:35;177.30;;;70.45;;
6422;SDS011;3244;42.708;23.288;2023-12-20T11:12:03;174.65;;;74.57;;
6422;SDS011;3244;42.708;23.288;2023-12-20T11:14:33;177.02;;;74.25;;
6422;SDS011;3244;42.708;23.288;2023-12-20T11:17:07;164.85;;;70.13;;
6422;SDS011;3244;42.708;23.288;2023-12-20T11:19:35;159.32;;;71.60;;
6422;SDS011;3244;42.708;23.288;2023-12-20T11:22:03;155.80;;;66.22;;
6422;SDS011;3244;42.708;23.288;2023-12-20T11:24:30;182.00;;;70.18;;
6422;SDS011;3244;42.708;23.288;2023-12-20T11:26:59;170.57;;;72.70;;
6422;SDS011;3244;42.708;23.288;2023-12-20T11:29:32;178.00;;;75.45;;
6422;SDS011;3244;42.708;23.288;2023-12-20T11:32:00;187.10;;;73.75;;
6422;SDS011;3244;42.708;23.288;2023-12-20T11:34:27;184.20;;;79.13;;
6422;SDS011;3244;42.708;23.288;2023-12-20T11:36:57;197.18;;;80.13;;
6422;SDS011;3244;42.708;23.288;2023-12-20T11:39:25;204.20;;;82.95;;
6422;SDS011;3244;42.708;23.288;2023-12-20T11:41:53;200.45;;;86.55;;
6422;SDS011;3244;42.708;23.288;2023-12-20T11:44:22;183.60;;;85.35;;
6422;SDS011;3244;42.708;23.288;2023-12-20T11:46:49;209.70;;;84.22;;
6422;SDS011;3244;42.708;23.288;2023-12-20T11:49:15;205.18;;;83.82;;
6422;SDS011;3244;42.708;23.288;2023-12-20T11:51:42;189.95;;;82.38;;
6422;SDS011;3244;42.708;23.288;2023-12-20T11:54:09;214.48;;;87.82;;
6422;SDS011;3244;42.708;23.288;2023-12-20T11:56:36;215.25;;;86.97;;
6422;SDS011;3244;42.708;23.288;2023-12-20T11:59:03;203.95;;;84.72;;
6422;SDS011;3244;42.708;23.288;2023-12-20T12:01:31;196.43;;;80.60;;
6422;SDS011;3244;42.708;23.288;2023-12-20T12:04:04;196.27;;;80.95;;
6422;SDS011;3244;42.708;23.288;2023-12-20T12:06:30;215.20;;;82.60;;
6422;SDS011;3244;42.708;23.288;2023-12-20T12:08:57;196.30;;;84.22;;
6422;SDS011;3244;42.708;23.288;2023-12-20T12:11:24;175.50;;;79.85;;
6422;SDS011;3244;42.708;23.288;2023-12-20T12:13:50;192.98;;;78.85;;
6422;SDS011;3244;42.708;23.288;2023-12-20T12:16:17;199.80;;;85.40;;
6422;SDS011;3244;42.708;23.288;2023-12-20T12:18:45;186.48;;;78.78;;
6422;SDS011;3244;42.708;23.288;2023-12-20T12:21:18;184.98;;;74.25;;
6422;SDS011;3244;42.708;23.288;2023-12-20T12:23:44;158.70;;;65.65;;
6422;SDS011;3244;42.708;23.288;2023-12-20T12:26:11;154.18;;;63.67;;
6422;SDS011;3244;42.708;23.288;2023-12-20T12:28:39;148.65;;;59.75;;
6422;SDS011;3244;42.708;23.288;2023-12-20T12:31:05;146.35;;;58.00;;
6422;SDS011;3244;42.708;23.288;2023-12-20T12:33:32;140.50;;;54.88;;
6422;SDS011;3244;42.708;23.288;2023-12-20T12:36:00;140.30;;;56.95;;
6422;SDS011;3244;42.708;23.288;2023-12-20T12:38:29;144.13;;;56.60;;
6422;SDS011;3244;42.708;23.288;2023-12-20T12:40:56;134.50;;;57.10;;
6422;SDS011;3244;42.708;23.288;2023-12-20T12:43:23;125.03;;;55.40;;
6422;SDS011;3244;42.708;23.288;2023-12-20T12:45:51;146.73;;;56.50;;
6422;SDS011;3244;42.708;23.288;2023-12-20T12:48:18;135.13;;;55.85;;
6422;SDS011;3244;42.708;23.288;2023-12-20T12:50:45;141.88;;;57.50;;
6422;SDS011;3244;42.708;23.288;2023-12-20T12:53:13;154.45;;;60.90;;
6422;SDS011;3244;42.708;23.288;2023-12-20T12:55:39;153.45;;;58.97;;
6422;SDS011;3244;42.708;23.288;2023-12-20T12:58:06;155.05;;;60.70;;
6422;SDS011;3244;42.708;23.288;2023-12-20T13:00:32;162.48;;;62.60;;
6422;SDS011;3244;42.708;23.288;2023-12-20T13:02:59;146.93;;;58.83;;
6422;SDS011;3244;42.708;23.288;2023-12-20T13:05:26;150.98;;;60.88;;
6422;SDS011;3244;42.708;23.288;2023-12-20T13:07:53;151.57;;;57.30;;
6422;SDS011;3244;42.708;23.288;2023-12-20T13:10:20;131.50;;;56.75;;
6422;SDS011;3244;42.708;23.288;2023-12-20T13:12:47;139.77;;;59.13;;
6422;SDS011;3244;42.708;23.288;2023-12-20T13:15:14;142.60;;;56.28;;
6422;SDS011;3244;42.708;23.288;2023-12-20T13:17:41;145.27;;;57.90;;
6422;SDS011;3244;42.708;23.288;2023-12-20T13:20:08;154.13;;;58.25;;
6422;SDS011;3244;42.708;23.288;2023-12-20T13:22:34;147.90;;;58.65;;
6422;SDS011;3244;42.708;23.288;2023-12-20T13:25:01;161.40;;;56.88;;
6422;SDS011;3244;42.708;23.288;2023-12-20T13:27:29;151.00;;;59.10;;
6422;SDS011;3244;42.708;23.288;2023-12-20T13:29:56;143.23;;;59.03;;
6422;SDS011;3244;42.708;23.288;2023-12-20T13:32:23;152.00;;;56.30;;
6422;SDS011;3244;42.708;23.288;2023-12-20T13:34:49;144.15;;;58.72;;
6422;SDS011;3244;42.708;23.288;2023-12-20T13:37:16;137.20;;;56.67;;
6422;SDS011;3244;42.708;23.288;2023-12-20T13:39:43;158.52;;;59.05;;
6422;SDS011;3244;42.708;23.288;2023-12-20T13:42:10;163.45;;;57.80;;
6422;SDS011;3244;42.708;23.288;2023-12-20T13:44:38;150.98;;;56.63;;
6422;SDS011;3244;42.708;23.288;2023-12-20T13:47:04;146.60;;;55.15;;
6422;SDS011;3244;42.708;23.288;2023-12-20T13:49:31;145.23;;;57.30;;
6422;SDS011;3244;42.708;23.288;2023-12-20T13:51:57;165.57;;;58.22;;
6422;SDS011;3244;42.708;23.288;2023-12-20T13:54:24;151.20;;;58.15;;
6422;SDS011;3244;42.708;23.288;2023-12-20T13:56:50;144.90;;;59.70;;
6422;SDS011;3244;42.708;23.288;2023-12-20T13:59:17;151.95;;;58.50;;
6422;SDS011;3244;42.708;23.288;2023-12-20T14:01:45;154.65;;;57.85;;
6422;SDS011;3244;42.708;23.288;2023-12-20T14:04:11;153.90;;;55.65;;
6422;SDS011;3244;42.708;23.288;2023-12-20T14:06:38;139.68;;;55.22;;
6422;SDS011;3244;42.708;23.288;2023-12-20T14:09:04;148.43;;;57.92;;
6422;SDS011;3244;42.708;23.288;2023-12-20T14:11:31;153.00;;;59.25;;
6422;SDS011;3244;42.708;23.288;2023-12-20T14:13:57;151.40;;;58.63;;
6422;SDS011;3244;42.708;23.288;2023-12-20T14:16:23;154.55;;;58.60;;
6422;SDS011;3244;42.708;23.288;2023-12-20T14:18:51;155.45;;;58.08;;
6422;SDS011;3244;42.708;23.288;2023-12-20T14:21:18;141.55;;;56.47;;
6422;SDS011;3244;42.708;23.288;2023-12-20T14:23:44;167.35;;;58.38;;
6422;SDS011;3244;42.708;23.288;2023-12-20T14:26:11;170.93;;;64.95;;
6422;SDS011;3244;42.708;23.288;2023-12-20T14:28:40;186.43;;;68.13;;